首页
METAR-TAF:

METAR-TAF

机场 :

阿道弗·苏亚雷斯马德里-巴拉哈斯机场

马德里, 西班牙

纬度: 40-27N, 经度: 003-33W, 海拔: 609米

当前天气观测

该预报发布于18分钟前的12:00 UTC
风速3节,风向,在东北南转南东之间变化
温度 6°C
湿度 100%
气压 1023 hPa
能見度: 5000
散云层高于300英尺
多云层高于1100英尺
轻雾

METAR: LEMD 111200Z 09003KT 050V150 5000 BR SCT003 BKN011 06/06 Q1023 NOSIG

时间: 13:18 (12:18 UTC)

预报

该预报发布于1小时和18分钟前的11:00 UTC
预报有效从11日的 12点(UTC)到 12日的 18点(UTC)
风速5节,风向
能见度10公里或以上
1500米以下无云,无积雨云
成为
从 11日的 13点(UTC)到 11日的 15点(UTC)
风速10节,风向
成为
从 11日的 17点(UTC)到 11日的 19点(UTC)
风速10节,风向西转西南
几率 40% :
短暂存在
从 11日的 12点(UTC)到 11日的 14点(UTC)
能見度: 4500
多云层高于900英尺
轻雾
成为
从 12日的 03点(UTC)到 12日的 06点(UTC)
散云层高于2500英尺
多云层高于4500英尺
几率 40% :
短暂存在
从 12日的 14点(UTC)到 12日的 18点(UTC)
能見度: 4500
多云层高于1200英尺
雨, 轻雾

TAF: LEMD 111100Z 1112/1218 17005KT CAVOK TX09/1115Z TN03/1206Z BECMG 1113/1115 35010KT BECMG 1117/1119 25010KT PROB40 TEMPO 1112/1114 4500 BR BKN009 BECMG 1203/1206 SCT025 BKN045 PROB40 TEMPO 1214/1218 4500 RA BR BKN012

超过4000个机场的气象观测和天气预报(METAR&TAF报告)。

可查询的气象台以黄色和红色小点在地图上表示。

将鼠标移到小点上方,可查看气象台名称。

然后点击查看天气观测和预报。

如需切换地图:点击带黑十字的绿色按钮放大地图;点击带横线的绿色按钮缩小地图;或者点击绿色箭头查看邻近地区的地图。


METAR-TAF: